Alexander 3 — SW6137 — position and weather

sailwx.info

Track history (hours):
 
Tides and Currents Weather Stations Pressure Air Temp Water Temp Dewpoint Dewpoint Depression Visibility Wind Speed Wind Dir Waves Ship Positions

Alexander 3

Last reported at 2017-Dec-11 17:00 UTC. Time now 2017-Dec-14 17:19 UTC.
Position N 37°58' E 023°24'.

Length 38 m; draft 5.6 m.

Type: Tug. MMSI: 240733000.

Date/timePositionNaut miles runAvg speedWind from/ knotsBaromVisibWave heightAir tempDewpointWater temp
2017-Dec-11 17:00N 37°58' E 023°24'0 0.0
2017-Dec-11 16:30N 37°58' E 023°24'0 0.0
2017-Dec-11 16:00N 37°58' E 023°24'0 0.0
2017-Dec-11 15:30N 37°58' E 023°24'0 0.0
2017-Dec-11 15:00N 37°58' E 023°24'0 0.0
2017-Dec-11 14:30N 37°58' E 023°24'0 0.0
2017-Dec-11 14:00N 37°58' E 023°24'0 0.0
2017-Dec-11 13:30N 37°58' E 023°24'0 0.0
2017-Dec-11 13:01N 37°58' E 023°24'0 0.0
2017-Dec-11 12:30N 37°58' E 023°24'0 0.0
2017-Dec-11 12:00N 37°58' E 023°24'0 0.0
2017-Dec-11 11:30N 37°58' E 023°24'0 0.0
2017-Dec-11 11:00N 37°58' E 023°24'0 0.0
2017-Dec-11 10:30N 37°58' E 023°24'0 0.0
2017-Dec-11 10:00N 37°58' E 023°24'1 2.3
2017-Dec-11 09:30N 37°58' E 023°23'0 0.0
2017-Dec-11 09:01N 37°58' E 023°23'0 0.2
2017-Dec-11 08:30N 37°58' E 023°23'0 0.7
2017-Dec-11 08:00N 37°58' E 023°23'1 2.1
2017-Dec-11 07:30N 37°58' E 023°22'0 0.3
2017-Dec-11 07:00N 37°58' E 023°22'0 0.2
2017-Dec-11 06:30N 37°58' E 023°22'3 6.0
2017-Dec-11 06:00N 37°60' E 023°25'510.8
2017-Dec-11 05:30N 38°00' E 023°32'4 8.2
2017-Dec-11 05:00N 37°57' E 023°36'0 0.2
2017-Dec-11 04:30N 37°57' E 023°36'0 0.0
2017-Dec-11 04:00N 37°57' E 023°36'0 0.0
2017-Dec-11 03:30N 37°57' E 023°36'0 0.0
2017-Dec-11 03:00N 37°57' E 023°36'0 0.0
2017-Dec-11 02:30N 37°57' E 023°36'0 0.0
2017-Dec-11 02:00N 37°57' E 023°36'0 0.0
2017-Dec-11 01:30N 37°57' E 023°36'0 0.0
2017-Dec-11 01:00N 37°57' E 023°36'1 2.5
2017-Dec-11 00:30N 37°57' E 023°35'1 2.8
2017-Dec-11 00:00N 37°56' E 023°35'1 2.5
2017-Dec-10 23:30N 37°57' E 023°35'1 2.3
2017-Dec-10 23:00N 37°57' E 023°36'0 0.0
2017-Dec-10 22:30N 37°57' E 023°36'0 0.0
2017-Dec-10 22:01N 37°57' E 023°36'0 0.0
2017-Dec-10 21:30N 37°57' E 023°36'0 0.0
2017-Dec-10 21:01N 37°57' E 023°36'0 0.0
2017-Dec-10 20:30N 37°57' E 023°36'0 0.0
2017-Dec-10 20:00N 37°57' E 023°36'0 0.0
2017-Dec-10 19:30N 37°57' E 023°36'0 0.0
2017-Dec-10 19:01N 37°57' E 023°36'0 0.0
2017-Dec-10 18:30N 37°57' E 023°36'0 0.0
2017-Dec-10 18:00N 37°57' E 023°36'0 0.0
2017-Dec-10 17:31N 37°57' E 023°36'0 0.0
2017-Dec-10 17:00N 37°57' E 023°36'0 0.0
2017-Dec-10 16:30N 37°57' E 023°36'0 0.0
2017-Dec-10 16:00N 37°57' E 023°36'1 2.3
2017-Dec-10 15:30N 37°57' E 023°35'1 1.3
2017-Dec-10 15:00N 37°57' E 023°35'1 2.6
2017-Dec-10 14:30N 37°57' E 023°36'0 0.0
2017-Dec-10 14:00N 37°57' E 023°36'0 0.0
2017-Dec-10 13:30N 37°57' E 023°36'0 0.0
2017-Dec-10 13:00N 37°57' E 023°36'0 0.0
2017-Dec-10 12:30N 37°57' E 023°36'0 0.0
2017-Dec-10 12:00N 37°57' E 023°36'0 0.6
2017-Dec-10 11:30N 37°58' E 023°36'1 2.7
2017-Dec-10 11:00N 37°56' E 023°37'2 3.1
2017-Dec-10 10:30N 37°57' E 023°35'2 3.0
2017-Dec-10 10:00N 37°56' E 023°36'1 2.8
2017-Dec-10 09:30N 37°57' E 023°36'0 0.0
2017-Dec-10 09:00N 37°57' E 023°36'0 0.0
2017-Dec-10 08:30N 37°57' E 023°36'1 1.6
2017-Dec-10 08:00N 37°57' E 023°35'0 0.1
2017-Dec-10 07:30N 37°57' E 023°35'0 0.7
2017-Dec-10 07:00N 37°57' E 023°35'2 4.0
2017-Dec-10 06:30N 37°56' E 023°37'1 1.9
2017-Dec-10 06:00N 37°56' E 023°38'0 0.0
2017-Dec-10 05:30N 37°56' E 023°38'0 0.0
2017-Dec-10 05:00N 37°56' E 023°38'0 0.0
2017-Dec-10 04:31N 37°56' E 023°38'0 0.7
2017-Dec-10 04:00N 37°56' E 023°38'0 0.0
2017-Dec-08 12:18N 37°56' E 023°38'1 2.6
2017-Dec-08 12:00N 37°56' E 023°37'1 2.0
2017-Dec-08 11:30N 37°57' E 023°36'0 0.1
2017-Dec-08 11:00N 37°57' E 023°36'0 0.0
2017-Dec-08 10:30N 37°57' E 023°36'0 0.0
2017-Dec-08 10:00N 37°57' E 023°36'0 0.8
2017-Dec-08 09:30N 37°57' E 023°35'0 0.5
2017-Dec-08 09:00N 37°57' E 023°35'1 1.2
2017-Dec-08 08:30N 37°57' E 023°36'0 0.0
2017-Dec-08 08:00N 37°57' E 023°36'0 0.0
2017-Dec-08 07:30N 37°57' E 023°36'0 0.0
2017-Dec-08 07:00N 37°57' E 023°36'0 0.0
2017-Dec-08 06:31N 37°57' E 023°36'0 0.0
2017-Dec-08 06:00N 37°57' E 023°36'1 1.0
2017-Dec-08 05:30N 37°57' E 023°36'2 3.4
2017-Dec-08 05:00N 37°56' E 023°36'1 2.8
2017-Dec-08 04:30N 37°56' E 023°38'0 0.0
2017-Dec-08 04:00N 37°56' E 023°38'0 0.0
2017-Dec-07 16:53N 37°56' E 023°38'1 3.7
2017-Dec-07 16:30N 37°57' E 023°36'1 1.7
2017-Dec-07 16:00N 37°57' E 023°35'0 0.4
2017-Dec-07 15:30N 37°57' E 023°35'1 1.4
2017-Dec-07 15:00N 37°57' E 023°36'0 0.0
2017-Dec-07 14:30N 37°57' E 023°36'0 0.0
2017-Dec-07 14:00N 37°57' E 023°36'0 0.0
2017-Dec-07 13:31N 37°57' E 023°36'0 0.0
2017-Dec-07 13:00N 37°57' E 023°36'0 0.0
2017-Dec-07 12:30N 37°57' E 023°36'0 0.0
2017-Dec-07 12:00N 37°57' E 023°36'0 0.0
2017-Dec-07 11:30N 37°57' E 023°36'0 0.0
2017-Dec-07 11:00N 37°57' E 023°36'0 0.6
2017-Dec-07 10:31N 37°57' E 023°37'1 2.4
2017-Dec-07 10:01N 37°56' E 023°36'3 6.5
2017-Dec-07 09:31N 37°53' E 023°35'3 5.3
2017-Dec-07 09:00N 37°55' E 023°33'2 4.0
2017-Dec-07 08:31N 37°57' E 023°35'1 1.4
2017-Dec-07 08:01N 37°57' E 023°36'0 0.0
2017-Dec-07 07:30N 37°57' E 023°36'0 0.0
2017-Dec-07 07:01N 37°57' E 023°36'0 0.0
2017-Dec-07 06:30N 37°57' E 023°36'0 0.0
2017-Dec-07 06:00N 37°57' E 023°36'0 0.0
2017-Dec-07 05:31N 37°57' E 023°36'0 0.7
2017-Dec-07 05:00N 37°57' E 023°36'1 1.3
2017-Dec-07 04:30N 37°57' E 023°35'2 4.1
2017-Dec-07 04:00N 37°56' E 023°38'  
2017-Dec-04 10:30N 37°57' E 023°37'0 0.0
2017-Dec-04 10:00N 37°57' E 023°37'0 0.0
2017-Dec-04 09:30N 37°57' E 023°37'0 0.0
2017-Dec-04 09:00N 37°57' E 023°37'0 0.0
2017-Dec-04 08:30N 37°57' E 023°37'0 0.0
2017-Dec-04 08:00N 37°57' E 023°37'0 0.0
2017-Dec-04 07:30N 37°57' E 023°37'0 0.0
2017-Dec-04 07:00N 37°57' E 023°37'0 0.0
2017-Dec-04 06:30N 37°57' E 023°37'0 0.0
2017-Dec-04 06:00N 37°57' E 023°37'0 0.0
2017-Dec-04 05:30N 37°57' E 023°37'0 0.0
2017-Dec-04 05:00N 37°57' E 023°37'0 0.0
2017-Dec-04 04:30N 37°57' E 023°37'0 0.0
2017-Dec-04 04:00N 37°57' E 023°37'0 0.0
2017-Dec-04 03:30N 37°57' E 023°37'0 0.0
2017-Dec-04 03:00N 37°57' E 023°37'0 0.0
2017-Dec-04 02:30N 37°57' E 023°37'0 0.0
2017-Dec-04 02:00N 37°57' E 023°37'0 0.0
2017-Dec-04 01:30N 37°57' E 023°37'0 0.9
2017-Dec-04 01:00N 37°57' E 023°36'1 1.2
2017-Dec-04 00:30N 37°57' E 023°35'0 0.5
2017-Dec-04 00:01N 37°57' E 023°35'0 0.7
2017-Dec-03 23:30N 37°57' E 023°35'2 3.8
2017-Dec-03 23:01N 37°55' E 023°35'1 2.4
2017-Dec-03 22:30N 37°56' E 023°35'1 2.3
2017-Dec-03 22:01N 37°57' E 023°35'0 0.9
2017-Dec-03 21:30N 37°57' E 023°35'1 1.7
2017-Dec-03 21:00N 37°57' E 023°36'0 0.0
2017-Dec-03 20:30N 37°57' E 023°36'1 1.5
2017-Dec-03 20:00N 37°57' E 023°35'1 1.1
2017-Dec-03 19:31N 37°57' E 023°35'2 3.7
2017-Dec-03 19:00N 37°56' E 023°37'0 0.9
2017-Dec-03 18:30N 37°56' E 023°38'0 0.0
2017-Dec-03 18:00N 37°56' E 023°38'0 0.0
2017-Dec-03 17:30N 37°56' E 023°38'0 0.0
2017-Dec-03 17:00N 37°56' E 023°38'0 0.0
2017-Dec-03 16:30N 37°56' E 023°38'0 0.0
2017-Dec-03 16:00N 37°56' E 023°38'0 0.0
2017-Dec-03 15:30N 37°56' E 023°38'0 0.0
2017-Dec-03 15:00N 37°56' E 023°38'0 0.0
2017-Dec-03 14:30N 37°56' E 023°38'0 0.0
2017-Dec-03 14:00N 37°56' E 023°38'0 0.0
2017-Dec-03 13:30N 37°56' E 023°38'0 0.0
2017-Dec-03 13:00N 37°56' E 023°38'0 0.0
2017-Dec-03 12:30N 37°56' E 023°38'0 0.0
2017-Dec-03 12:00N 37°56' E 023°38'0 0.0
2017-Dec-03 11:30N 37°56' E 023°38'0 0.0
2017-Dec-03 11:00N 37°56' E 023°38'0 0.0
2017-Dec-03 10:30N 37°56' E 023°38'0 0.0
2017-Dec-03 10:00N 37°56' E 023°38'0 0.0
2017-Dec-03 09:30N 37°56' E 023°38'0 0.0
2017-Dec-03 09:00N 37°56' E 023°38'0 0.0
2017-Dec-03 08:30N 37°56' E 023°38'0 0.0
2017-Dec-03 07:59N 37°56' E 023°38'0 0.0
2017-Dec-03 07:30N 37°56' E 023°38'0 0.0
2017-Dec-03 07:00N 37°56' E 023°38'0 0.0
2017-Dec-03 06:30N 37°56' E 023°38'0 0.0
2017-Dec-03 06:00N 37°56' E 023°38'0 0.0
2017-Dec-03 05:30N 37°56' E 023°38'0 0.0
2017-Dec-03 05:00N 37°56' E 023°38'0 0.0
2017-Dec-03 04:30N 37°56' E 023°38'0 0.0
2017-Dec-03 04:00N 37°56' E 023°38'0 0.0
2017-Dec-03 03:30N 37°56' E 023°38'0 0.0
2017-Dec-03 03:00N 37°56' E 023°38'0 0.0
2017-Dec-03 02:30N 37°56' E 023°38'0 0.0
2017-Dec-03 02:00N 37°56' E 023°38'0 0.0
2017-Dec-03 01:30N 37°56' E 023°38'0 0.0
2017-Dec-03 01:00N 37°56' E 023°38'0 0.0
2017-Dec-02 16:46N 37°56' E 023°38'0 0.0
2017-Dec-02 16:30N 37°56' E 023°38'0 0.0
2017-Dec-02 16:00N 37°56' E 023°38'0 0.0
2017-Dec-02 15:30N 37°56' E 023°38'0 0.0
2017-Dec-02 15:00N 37°56' E 023°38'0 0.0
2017-Dec-02 14:30N 37°56' E 023°38'0 0.0
2017-Dec-02 14:00N 37°56' E 023°38'0 0.0
2017-Dec-02 13:30N 37°56' E 023°38'0 0.0
2017-Dec-02 13:00N 37°56' E 023°38'0 0.0
2017-Dec-02 12:30N 37°56' E 023°38'0 0.0
2017-Dec-02 12:00N 37°56' E 023°38'0 0.0
2017-Dec-02 11:30N 37°56' E 023°38'0 0.0
2017-Dec-02 11:00N 37°56' E 023°38'0 0.0
2017-Dec-02 10:30N 37°56' E 023°38'0 0.0
2017-Dec-02 10:00N 37°56' E 023°38'0 0.0
2017-Dec-02 09:30N 37°56' E 023°38'0 1.0
2017-Dec-02 09:00N 37°56' E 023°37'0 0.0
2017-Dec-02 08:30N 37°56' E 023°37'0 0.0
2017-Dec-02 08:00N 37°56' E 023°37'0 0.0
2017-Dec-02 07:30N 37°56' E 023°37'0 0.0
2017-Dec-02 07:00N 37°56' E 023°37'0 0.0
2017-Dec-02 06:30N 37°56' E 023°37'0 0.0
2017-Dec-02 06:00N 37°56' E 023°37'0 0.0
2017-Dec-02 05:30N 37°56' E 023°37'0 0.0
2017-Dec-02 05:00N 37°56' E 023°37'0 0.0
2017-Dec-02 04:30N 37°56' E 023°37'0 0.0
2017-Dec-02 04:00N 37°56' E 023°37'  
Track history (hours):
 
Tides and Currents Weather Stations Pressure Air Temp Water Temp Dewpoint Dewpoint Depression Visibility Wind Speed Wind Dir Waves Ship Positions

Alexander 3

Last reported at 2017-Dec-11 17:00 UTC. Time now 2017-Dec-14 17:19 UTC.
Position N 37°58' E 023°24'.

Length 38 m; draft 5.6 m.

Type: Tug. MMSI: 240733000.

Date/timePositionNaut miles runAvg speedWind from/ knotsBaromVisibWave heightAir tempDewpointWater temp
2017-Dec-11 17:00N 37°58' E 023°24'0 0.0
2017-Dec-11 16:30N 37°58' E 023°24'0 0.0
2017-Dec-11 16:00N 37°58' E 023°24'0 0.0
2017-Dec-11 15:30N 37°58' E 023°24'0 0.0
2017-Dec-11 15:00N 37°58' E 023°24'0 0.0
2017-Dec-11 14:30N 37°58' E 023°24'0 0.0
2017-Dec-11 14:00N 37°58' E 023°24'0 0.0
2017-Dec-11 13:30N 37°58' E 023°24'0 0.0
2017-Dec-11 13:01N 37°58' E 023°24'0 0.0
2017-Dec-11 12:30N 37°58' E 023°24'0 0.0
2017-Dec-11 12:00N 37°58' E 023°24'0 0.0
2017-Dec-11 11:30N 37°58' E 023°24'0 0.0
2017-Dec-11 11:00N 37°58' E 023°24'0 0.0
2017-Dec-11 10:30N 37°58' E 023°24'0 0.0
2017-Dec-11 10:00N 37°58' E 023°24'1 2.3
2017-Dec-11 09:30N 37°58' E 023°23'0 0.0
2017-Dec-11 09:01N 37°58' E 023°23'0 0.2
2017-Dec-11 08:30N 37°58' E 023°23'0 0.7
2017-Dec-11 08:00N 37°58' E 023°23'1 2.1
2017-Dec-11 07:30N 37°58' E 023°22'0 0.3
2017-Dec-11 07:00N 37°58' E 023°22'0 0.2
2017-Dec-11 06:30N 37°58' E 023°22'3 6.0
2017-Dec-11 06:00N 37°60' E 023°25'510.8
2017-Dec-11 05:30N 38°00' E 023°32'4 8.2
2017-Dec-11 05:00N 37°57' E 023°36'0 0.2
2017-Dec-11 04:30N 37°57' E 023°36'0 0.0
2017-Dec-11 04:00N 37°57' E 023°36'0 0.0
2017-Dec-11 03:30N 37°57' E 023°36'0 0.0
2017-Dec-11 03:00N 37°57' E 023°36'0 0.0
2017-Dec-11 02:30N 37°57' E 023°36'0 0.0
2017-Dec-11 02:00N 37°57' E 023°36'0 0.0
2017-Dec-11 01:30N 37°57' E 023°36'0 0.0
2017-Dec-11 01:00N 37°57' E 023°36'1 2.5
2017-Dec-11 00:30N 37°57' E 023°35'1 2.8
2017-Dec-11 00:00N 37°56' E 023°35'1 2.5
2017-Dec-10 23:30N 37°57' E 023°35'1 2.3
2017-Dec-10 23:00N 37°57' E 023°36'0 0.0
2017-Dec-10 22:30N 37°57' E 023°36'0 0.0
2017-Dec-10 22:01N 37°57' E 023°36'0 0.0
2017-Dec-10 21:30N 37°57' E 023°36'0 0.0
2017-Dec-10 21:01N 37°57' E 023°36'0 0.0
2017-Dec-10 20:30N 37°57' E 023°36'0 0.0
2017-Dec-10 20:00N 37°57' E 023°36'0 0.0
2017-Dec-10 19:30N 37°57' E 023°36'0 0.0
2017-Dec-10 19:01N 37°57' E 023°36'0 0.0
2017-Dec-10 18:30N 37°57' E 023°36'0 0.0
2017-Dec-10 18:00N 37°57' E 023°36'0 0.0
2017-Dec-10 17:31N 37°57' E 023°36'0 0.0
2017-Dec-10 17:00N 37°57' E 023°36'0 0.0
2017-Dec-10 16:30N 37°57' E 023°36'0 0.0
2017-Dec-10 16:00N 37°57' E 023°36'1 2.3
2017-Dec-10 15:30N 37°57' E 023°35'1 1.3
2017-Dec-10 15:00N 37°57' E 023°35'1 2.6
2017-Dec-10 14:30N 37°57' E 023°36'0 0.0
2017-Dec-10 14:00N 37°57' E 023°36'0 0.0
2017-Dec-10 13:30N 37°57' E 023°36'0 0.0
2017-Dec-10 13:00N 37°57' E 023°36'0 0.0
2017-Dec-10 12:30N 37°57' E 023°36'0 0.0
2017-Dec-10 12:00N 37°57' E 023°36'0 0.6
2017-Dec-10 11:30N 37°58' E 023°36'1 2.7
2017-Dec-10 11:00N 37°56' E 023°37'2 3.1
2017-Dec-10 10:30N 37°57' E 023°35'2 3.0
2017-Dec-10 10:00N 37°56' E 023°36'1 2.8
2017-Dec-10 09:30N 37°57' E 023°36'0 0.0
2017-Dec-10 09:00N 37°57' E 023°36'0 0.0
2017-Dec-10 08:30N 37°57' E 023°36'1 1.6
2017-Dec-10 08:00N 37°57' E 023°35'0 0.1
2017-Dec-10 07:30N 37°57' E 023°35'0 0.7
2017-Dec-10 07:00N 37°57' E 023°35'2 4.0
2017-Dec-10 06:30N 37°56' E 023°37'1 1.9
2017-Dec-10 06:00N 37°56' E 023°38'0 0.0
2017-Dec-10 05:30N 37°56' E 023°38'0 0.0
2017-Dec-10 05:00N 37°56' E 023°38'0 0.0
2017-Dec-10 04:31N 37°56' E 023°38'0 0.7
2017-Dec-10 04:00N 37°56' E 023°38'0 0.0
2017-Dec-08 12:18N 37°56' E 023°38'1 2.6
2017-Dec-08 12:00N 37°56' E 023°37'1 2.0
2017-Dec-08 11:30N 37°57' E 023°36'0 0.1
2017-Dec-08 11:00N 37°57' E 023°36'0 0.0
2017-Dec-08 10:30N 37°57' E 023°36'0 0.0
2017-Dec-08 10:00N 37°57' E 023°36'0 0.8
2017-Dec-08 09:30N 37°57' E 023°35'0 0.5
2017-Dec-08 09:00N 37°57' E 023°35'1 1.2
2017-Dec-08 08:30N 37°57' E 023°36'0 0.0
2017-Dec-08 08:00N 37°57' E 023°36'0 0.0
2017-Dec-08 07:30N 37°57' E 023°36'0 0.0
2017-Dec-08 07:00N 37°57' E 023°36'0 0.0
2017-Dec-08 06:31N 37°57' E 023°36'0 0.0
2017-Dec-08 06:00N 37°57' E 023°36'1 1.0
2017-Dec-08 05:30N 37°57' E 023°36'2 3.4
2017-Dec-08 05:00N 37°56' E 023°36'1 2.8
2017-Dec-08 04:30N 37°56' E 023°38'0 0.0
2017-Dec-08 04:00N 37°56' E 023°38'0 0.0
2017-Dec-07 16:53N 37°56' E 023°38'1 3.7
2017-Dec-07 16:30N 37°57' E 023°36'1 1.7
2017-Dec-07 16:00N 37°57' E 023°35'0 0.4
2017-Dec-07 15:30N 37°57' E 023°35'1 1.4
2017-Dec-07 15:00N 37°57' E 023°36'0 0.0
2017-Dec-07 14:30N 37°57' E 023°36'0 0.0
2017-Dec-07 14:00N 37°57' E 023°36'0 0.0
2017-Dec-07 13:31N 37°57' E 023°36'0 0.0
2017-Dec-07 13:00N 37°57' E 023°36'0 0.0
2017-Dec-07 12:30N 37°57' E 023°36'0 0.0
2017-Dec-07 12:00N 37°57' E 023°36'0 0.0
2017-Dec-07 11:30N 37°57' E 023°36'0 0.0
2017-Dec-07 11:00N 37°57' E 023°36'0 0.6
2017-Dec-07 10:31N 37°57' E 023°37'1 2.4
2017-Dec-07 10:01N 37°56' E 023°36'3 6.5
2017-Dec-07 09:31N 37°53' E 023°35'3 5.3
2017-Dec-07 09:00N 37°55' E 023°33'2 4.0
2017-Dec-07 08:31N 37°57' E 023°35'1 1.4
2017-Dec-07 08:01N 37°57' E 023°36'0 0.0
2017-Dec-07 07:30N 37°57' E 023°36'0 0.0
2017-Dec-07 07:01N 37°57' E 023°36'0 0.0
2017-Dec-07 06:30N 37°57' E 023°36'0 0.0
2017-Dec-07 06:00N 37°57' E 023°36'0 0.0
2017-Dec-07 05:31N 37°57' E 023°36'0 0.7
2017-Dec-07 05:00N 37°57' E 023°36'1 1.3
2017-Dec-07 04:30N 37°57' E 023°35'2 4.1
2017-Dec-07 04:00N 37°56' E 023°38'  
2017-Dec-04 10:30N 37°57' E 023°37'0 0.0
2017-Dec-04 10:00N 37°57' E 023°37'0 0.0
2017-Dec-04 09:30N 37°57' E 023°37'0 0.0
2017-Dec-04 09:00N 37°57' E 023°37'0 0.0
2017-Dec-04 08:30N 37°57' E 023°37'0 0.0
2017-Dec-04 08:00N 37°57' E 023°37'0 0.0
2017-Dec-04 07:30N 37°57' E 023°37'0 0.0
2017-Dec-04 07:00N 37°57' E 023°37'0 0.0
2017-Dec-04 06:30N 37°57' E 023°37'0 0.0
2017-Dec-04 06:00N 37°57' E 023°37'0 0.0
2017-Dec-04 05:30N 37°57' E 023°37'0 0.0
2017-Dec-04 05:00N 37°57' E 023°37'0 0.0
2017-Dec-04 04:30N 37°57' E 023°37'0 0.0
2017-Dec-04 04:00N 37°57' E 023°37'0 0.0
2017-Dec-04 03:30N 37°57' E 023°37'0 0.0
2017-Dec-04 03:00N 37°57' E 023°37'0 0.0
2017-Dec-04 02:30N 37°57' E 023°37'0 0.0
2017-Dec-04 02:00N 37°57' E 023°37'0 0.0
2017-Dec-04 01:30N 37°57' E 023°37'0 0.9
2017-Dec-04 01:00N 37°57' E 023°36'1 1.2
2017-Dec-04 00:30N 37°57' E 023°35'0 0.5
2017-Dec-04 00:01N 37°57' E 023°35'0 0.7
2017-Dec-03 23:30N 37°57' E 023°35'2 3.8
2017-Dec-03 23:01N 37°55' E 023°35'1 2.4
2017-Dec-03 22:30N 37°56' E 023°35'1 2.3
2017-Dec-03 22:01N 37°57' E 023°35'0 0.9
2017-Dec-03 21:30N 37°57' E 023°35'1 1.7
2017-Dec-03 21:00N 37°57' E 023°36'0 0.0
2017-Dec-03 20:30N 37°57' E 023°36'1 1.5
2017-Dec-03 20:00N 37°57' E 023°35'1 1.1
2017-Dec-03 19:31N 37°57' E 023°35'2 3.7
2017-Dec-03 19:00N 37°56' E 023°37'0 0.9
2017-Dec-03 18:30N 37°56' E 023°38'0 0.0
2017-Dec-03 18:00N 37°56' E 023°38'0 0.0
2017-Dec-03 17:30N 37°56' E 023°38'0 0.0
2017-Dec-03 17:00N 37°56' E 023°38'0 0.0
2017-Dec-03 16:30N 37°56' E 023°38'0 0.0
2017-Dec-03 16:00N 37°56' E 023°38'0 0.0
2017-Dec-03 15:30N 37°56' E 023°38'0 0.0
2017-Dec-03 15:00N 37°56' E 023°38'0 0.0
2017-Dec-03 14:30N 37°56' E 023°38'0 0.0
2017-Dec-03 14:00N 37°56' E 023°38'0 0.0
2017-Dec-03 13:30N 37°56' E 023°38'0 0.0
2017-Dec-03 13:00N 37°56' E 023°38'0 0.0
2017-Dec-03 12:30N 37°56' E 023°38'0 0.0
2017-Dec-03 12:00N 37°56' E 023°38'0 0.0
2017-Dec-03 11:30N 37°56' E 023°38'0 0.0
2017-Dec-03 11:00N 37°56' E 023°38'0 0.0
2017-Dec-03 10:30N 37°56' E 023°38'0 0.0
2017-Dec-03 10:00N 37°56' E 023°38'0 0.0
2017-Dec-03 09:30N 37°56' E 023°38'0 0.0
2017-Dec-03 09:00N 37°56' E 023°38'0 0.0
2017-Dec-03 08:30N 37°56' E 023°38'0 0.0
2017-Dec-03 07:59N 37°56' E 023°38'0 0.0
2017-Dec-03 07:30N 37°56' E 023°38'0 0.0
2017-Dec-03 07:00N 37°56' E 023°38'0 0.0
2017-Dec-03 06:30N 37°56' E 023°38'0 0.0
2017-Dec-03 06:00N 37°56' E 023°38'0 0.0
2017-Dec-03 05:30N 37°56' E 023°38'0 0.0
2017-Dec-03 05:00N 37°56' E 023°38'0 0.0
2017-Dec-03 04:30N 37°56' E 023°38'0 0.0
2017-Dec-03 04:00N 37°56' E 023°38'0 0.0
2017-Dec-03 03:30N 37°56' E 023°38'0 0.0
2017-Dec-03 03:00N 37°56' E 023°38'0 0.0
2017-Dec-03 02:30N 37°56' E 023°38'0 0.0
2017-Dec-03 02:00N 37°56' E 023°38'0 0.0
2017-Dec-03 01:30N 37°56' E 023°38'0 0.0
2017-Dec-03 01:00N 37°56' E 023°38'0 0.0
2017-Dec-02 16:46N 37°56' E 023°38'0 0.0
2017-Dec-02 16:30N 37°56' E 023°38'0 0.0
2017-Dec-02 16:00N 37°56' E 023°38'0 0.0
2017-Dec-02 15:30N 37°56' E 023°38'0 0.0
2017-Dec-02 15:00N 37°56' E 023°38'0 0.0
2017-Dec-02 14:30N 37°56' E 023°38'0 0.0
2017-Dec-02 14:00N 37°56' E 023°38'0 0.0
2017-Dec-02 13:30N 37°56' E 023°38'0 0.0
2017-Dec-02 13:00N 37°56' E 023°38'0 0.0
2017-Dec-02 12:30N 37°56' E 023°38'0 0.0
2017-Dec-02 12:00N 37°56' E 023°38'0 0.0
2017-Dec-02 11:30N 37°56' E 023°38'0 0.0
2017-Dec-02 11:00N 37°56' E 023°38'0 0.0
2017-Dec-02 10:30N 37°56' E 023°38'0 0.0
2017-Dec-02 10:00N 37°56' E 023°38'0 0.0
2017-Dec-02 09:30N 37°56' E 023°38'0 1.0
2017-Dec-02 09:00N 37°56' E 023°37'0 0.0
2017-Dec-02 08:30N 37°56' E 023°37'0 0.0
2017-Dec-02 08:00N 37°56' E 023°37'0 0.0
2017-Dec-02 07:30N 37°56' E 023°37'0 0.0
2017-Dec-02 07:00N 37°56' E 023°37'0 0.0
2017-Dec-02 06:30N 37°56' E 023°37'0 0.0
2017-Dec-02 06:00N 37°56' E 023°37'0 0.0
2017-Dec-02 05:30N 37°56' E 023°37'0 0.0
2017-Dec-02 05:00N 37°56' E 023°37'0 0.0
2017-Dec-02 04:30N 37°56' E 023°37'0 0.0
2017-Dec-02 04:00N 37°56' E 023°37'  

Dump ship's entire track history